sensor_id;sensor_type;location;lat;lon;timestamp;pressure;altitude;pressure_sealevel;temperature;humidity
52319;BME280;38258;51.148;14.068;2023-02-23T00:01:11;98020.53;;;4.81;100.00
52319;BME280;38258;51.148;14.068;2023-02-23T00:03:37;98051.38;;;5.03;100.00
52319;BME280;38258;51.148;14.068;2023-02-23T00:06:05;98041.03;;;5.00;100.00
52319;BME280;38258;51.148;14.068;2023-02-23T00:08:31;98045.44;;;4.95;100.00
52319;BME280;38258;51.148;14.068;2023-02-23T00:11:00;98043.69;;;4.94;100.00
52319;BME280;38258;51.148;14.068;2023-02-23T00:13:26;98046.28;;;4.95;100.00
52319;BME280;38258;51.148;14.068;2023-02-23T00:15:54;98035.13;;;4.90;100.00
52319;BME280;38258;51.148;14.068;2023-02-23T00:18:22;98035.06;;;4.93;100.00
52319;BME280;38258;51.148;14.068;2023-02-23T00:20:54;98035.03;;;4.97;100.00
52319;BME280;38258;51.148;14.068;2023-02-23T00:23:22;97985.31;;;4.62;100.00
52319;BME280;38258;51.148;14.068;2023-02-23T00:25:52;98012.81;;;4.75;100.00
52319;BME280;38258;51.148;14.068;2023-02-23T00:28:18;98024.09;;;4.70;100.00
52319;BME280;38258;51.148;14.068;2023-02-23T00:30:45;98023.88;;;4.90;100.00
52319;BME280;38258;51.148;14.068;2023-02-23T00:33:11;98040.31;;;4.87;100.00
52319;BME280;38258;51.148;14.068;2023-02-23T00:35:40;98037.75;;;4.86;100.00
52319;BME280;38258;51.148;14.068;2023-02-23T00:38:07;98040.09;;;5.09;100.00
52319;BME280;38258;51.148;14.068;2023-02-23T00:40:33;98040.16;;;5.03;100.00
52319;BME280;38258;51.148;14.068;2023-02-23T00:43:00;98034.09;;;5.04;100.00
52319;BME280;38258;51.148;14.068;2023-02-23T00:45:26;98037.56;;;5.01;100.00
52319;BME280;38258;51.148;14.068;2023-02-23T00:47:53;98033.31;;;4.95;100.00
52319;BME280;38258;51.148;14.068;2023-02-23T00:50:19;98015.31;;;4.85;100.00
52319;BME280;38258;51.148;14.068;2023-02-23T00:52:47;98040.31;;;4.89;100.00
52319;BME280;38258;51.148;14.068;2023-02-23T00:55:14;98041.00;;;5.02;100.00
52319;BME280;38258;51.148;14.068;2023-02-23T00:57:40;98045.41;;;4.98;100.00
52319;BME280;38258;51.148;14.068;2023-02-23T01:00:09;98046.31;;;4.92;100.00
52319;BME280;38258;51.148;14.068;2023-02-23T01:02:44;98043.16;;;4.64;100.00
52319;BME280;38258;51.148;14.068;2023-02-23T01:05:11;98028.13;;;4.94;100.00
52319;BME280;38258;51.148;14.068;2023-02-23T01:07:38;98040.94;;;5.09;100.00
52319;BME280;38258;51.148;14.068;2023-02-23T01:10:07;98050.44;;;5.09;100.00
52319;BME280;38258;51.148;14.068;2023-02-23T01:12:45;98026.47;;;4.91;100.00
52319;BME280;38258;51.148;14.068;2023-02-23T01:15:12;98035.91;;;4.95;100.00
52319;BME280;38258;51.148;14.068;2023-02-23T01:17:38;98035.88;;;5.00;100.00
52319;BME280;38258;51.148;14.068;2023-02-23T01:20:09;98026.50;;;4.85;100.00
52319;BME280;38258;51.148;14.068;2023-02-23T01:22:40;98032.25;;;5.12;100.00
52319;BME280;38258;51.148;14.068;2023-02-23T01:25:09;98023.69;;;5.05;100.00
52319;BME280;38258;51.148;14.068;2023-02-23T01:27:38;98037.56;;;5.01;100.00
52319;BME280;38258;51.148;14.068;2023-02-23T01:30:10;98034.09;;;5.04;100.00
52319;BME280;38258;51.148;14.068;2023-02-23T01:32:38;98022.25;;;4.83;100.00
52319;BME280;38258;51.148;14.068;2023-02-23T01:35:06;98030.69;;;4.99;100.00
52319;BME280;38258;51.148;14.068;2023-02-23T01:37:34;98026.34;;;5.01;100.00
52319;BME280;38258;51.148;14.068;2023-02-23T01:40:01;98028.84;;;5.08;100.00
52319;BME280;38258;51.148;14.068;2023-02-23T01:42:37;98027.22;;;5.01;100.00
52319;BME280;38258;51.148;14.068;2023-02-23T01:45:23;98009.06;;;5.00;100.00
52319;BME280;38258;51.148;14.068;2023-02-23T01:47:54;98023.81;;;4.94;100.00
52319;BME280;38258;51.148;14.068;2023-02-23T01:50:23;98021.16;;;5.02;100.00
52319;BME280;38258;51.148;14.068;2023-02-23T01:52:51;98015.34;;;4.81;100.00
52319;BME280;38258;51.148;14.068;2023-02-23T01:55:20;98014.34;;;4.92;100.00
52319;BME280;38258;51.148;14.068;2023-02-23T01:57:53;98005.72;;;4.90;100.00
52319;BME280;38258;51.148;14.068;2023-02-23T02:00:22;98006.56;;;4.92;100.00
52319;BME280;38258;51.148;14.068;2023-02-23T02:02:53;98008.22;;;4.98;100.00
52319;BME280;38258;51.148;14.068;2023-02-23T02:05:20;98000.44;;;4.99;100.00
52319;BME280;38258;51.148;14.068;2023-02-23T02:07:50;98000.47;;;4.98;100.00
52319;BME280;38258;51.148;14.068;2023-02-23T02:10:24;97997.78;;;5.05;100.00
52319;BME280;38258;51.148;14.068;2023-02-23T02:13:21;97987.50;;;4.99;100.00
52319;BME280;38258;51.148;14.068;2023-02-23T02:16:20;97993.56;;;4.98;100.00
52319;BME280;38258;51.148;14.068;2023-02-23T02:19:05;97984.13;;;4.92;100.00
52319;BME280;38258;51.148;14.068;2023-02-23T02:21:55;97985.63;;;5.09;100.00
52319;BME280;38258;51.148;14.068;2023-02-23T02:27:46;97981.44;;;4.99;100.00
52319;BME280;38258;51.148;14.068;2023-02-23T02:30:42;97979.56;;;5.10;100.00
52319;BME280;38258;51.148;14.068;2023-02-23T02:33:54;97976.94;;;5.13;100.00
52319;BME280;38258;51.148;14.068;2023-02-23T02:37:04;97978.81;;;5.02;100.00
52319;BME280;38258;51.148;14.068;2023-02-23T02:39:40;97979.47;;;5.16;100.00
52319;BME280;38258;51.148;14.068;2023-02-23T02:42:18;97974.47;;;5.04;100.00
52319;BME280;38258;51.148;14.068;2023-02-23T02:44:51;97970.88;;;5.16;100.00
52319;BME280;38258;51.148;14.068;2023-02-23T02:47:24;97962.44;;;4.98;100.00
52319;BME280;38258;51.148;14.068;2023-02-23T02:50:01;97961.44;;;5.10;100.00
52319;BME280;38258;51.148;14.068;2023-02-23T02:52:35;97958.16;;;4.95;100.00
52319;BME280;38258;51.148;14.068;2023-02-23T02:55:08;97942.69;;;4.89;100.00
52319;BME280;38258;51.148;14.068;2023-02-23T02:57:38;97959.72;;;5.07;100.00
52319;BME280;38258;51.148;14.068;2023-02-23T03:00:06;97955.47;;;5.02;100.00
52319;BME280;38258;51.148;14.068;2023-02-23T03:02:50;97955.41;;;5.06;100.00
52319;BME280;38258;51.148;14.068;2023-02-23T03:05:36;97960.59;;;5.06;100.00
52319;BME280;38258;51.148;14.068;2023-02-23T03:08:29;97955.41;;;5.06;100.00
52319;BME280;38258;51.148;14.068;2023-02-23T03:11:16;97957.06;;;5.14;100.00
52319;BME280;38258;51.148;14.068;2023-02-23T03:14:14;97951.94;;;5.11;100.00
52319;BME280;38258;51.148;14.068;2023-02-23T03:17:03;97952.03;;;5.03;100.00
52319;BME280;38258;51.148;14.068;2023-02-23T03:19:54;97969.25;;;5.05;100.00
52319;BME280;38258;51.148;14.068;2023-02-23T03:22:46;97972.72;;;5.04;100.00
52319;BME280;38258;51.148;14.068;2023-02-23T03:25:45;97966.81;;;4.94;100.00
52319;BME280;38258;51.148;14.068;2023-02-23T03:28:34;97946.31;;;4.76;100.00
52319;BME280;38258;51.148;14.068;2023-02-23T03:31:26;97979.03;;;4.83;100.00
52319;BME280;38258;51.148;14.068;2023-02-23T03:34:17;97977.38;;;4.79;100.00
52319;BME280;38258;51.148;14.068;2023-02-23T03:37:11;97968.56;;;4.92;100.00
52319;BME280;38258;51.148;14.068;2023-02-23T03:40:03;97971.94;;;4.99;100.00
52319;BME280;38258;51.148;14.068;2023-02-23T03:42:51;97977.09;;;5.02;100.00
52319;BME280;38258;51.148;14.068;2023-02-23T03:45:39;97965.97;;;4.91;100.00
52319;BME280;38258;51.148;14.068;2023-02-23T03:48:25;97964.28;;;4.90;100.00
52319;BME280;38258;51.148;14.068;2023-02-23T03:51:11;97962.75;;;4.72;100.00
52319;BME280;38258;51.148;14.068;2023-02-23T03:54:00;97959.91;;;4.95;100.00
52319;BME280;38258;51.148;14.068;2023-02-23T03:56:50;97958.94;;;5.02;100.00
52319;BME280;38258;51.148;14.068;2023-02-23T03:59:40;97934.09;;;4.86;100.00
52319;BME280;38258;51.148;14.068;2023-02-23T04:02:29;97960.84;;;4.88;100.00
52319;BME280;38258;51.148;14.068;2023-02-23T04:05:17;97950.53;;;4.85;100.00
52319;BME280;38258;51.148;14.068;2023-02-23T04:08:05;97954.00;;;4.84;100.00
52319;BME280;38258;51.148;14.068;2023-02-23T04:10:59;97960.19;;;4.70;100.00
52319;BME280;38258;51.148;14.068;2023-02-23T04:13:47;97949.09;;;4.60;100.00
52319;BME280;38258;51.148;14.068;2023-02-23T04:16:19;97963.75;;;4.60;100.00
52319;BME280;38258;51.148;14.068;2023-02-23T04:18:44;97958.38;;;4.77;100.00
52319;BME280;38258;51.148;14.068;2023-02-23T04:21:11;97956.53;;;4.87;100.00
52319;BME280;38258;51.148;14.068;2023-02-23T04:23:38;97938.41;;;4.87;100.00
52319;BME280;38258;51.148;14.068;2023-02-23T04:26:07;97946.94;;;4.93;100.00
52319;BME280;38258;51.148;14.068;2023-02-23T04:28:33;97951.31;;;4.91;100.00
52319;BME280;38258;51.148;14.068;2023-02-23T04:31:00;97945.28;;;4.89;100.00
52319;BME280;38258;51.148;14.068;2023-02-23T04:33:28;97960.75;;;4.94;100.00
52319;BME280;38258;51.148;14.068;2023-02-23T04:35:54;97965.94;;;4.94;100.00
52319;BME280;38258;51.148;14.068;2023-02-23T04:38:21;97959.81;;;5.00;100.00
52319;BME280;38258;51.148;14.068;2023-02-23T04:40:48;97959.78;;;5.04;100.00
52319;BME280;38258;51.148;14.068;2023-02-23T04:43:15;97963.94;;;5.16;100.00
52319;BME280;38258;51.148;14.068;2023-02-23T04:45:42;97961.53;;;5.02;100.00
52319;BME280;38258;51.148;14.068;2023-02-23T04:48:09;97966.72;;;5.02;100.00
52319;BME280;38258;51.148;14.068;2023-02-23T04:50:37;97958.94;;;5.04;100.00
52319;BME280;38258;51.148;14.068;2023-02-23T04:53:04;97958.16;;;4.94;100.00
52319;BME280;38258;51.148;14.068;2023-02-23T04:55:30;97959.72;;;5.07;100.00
52319;BME280;38258;51.148;14.068;2023-02-23T04:57:59;97954.53;;;5.07;100.00
52319;BME280;38258;51.148;14.068;2023-02-23T05:00:27;97959.81;;;5.03;100.00
52319;BME280;38258;51.148;14.068;2023-02-23T05:02:54;97944.25;;;5.03;100.00
52319;BME280;38258;51.148;14.068;2023-02-23T05:05:23;97960.66;;;5.02;100.00
52319;BME280;38258;51.148;14.068;2023-02-23T05:08:22;97959.66;;;5.14;100.00
52319;BME280;38258;51.148;14.068;2023-02-23T05:11:10;97957.13;;;5.07;100.00
52319;BME280;38258;51.148;14.068;2023-02-23T05:13:37;97945.88;;;5.10;100.00
52319;BME280;38258;51.148;14.068;2023-02-23T05:16:05;97961.31;;;5.19;100.00
52319;BME280;38258;51.148;14.068;2023-02-23T05:18:32;97965.56;;;5.23;100.00
52319;BME280;38258;51.148;14.068;2023-02-23T05:21:04;97963.97;;;5.15;100.00
52319;BME280;38258;51.148;14.068;2023-02-23T05:23:33;97968.16;;;5.23;100.00
52319;BME280;38258;51.148;14.068;2023-02-23T05:26:01;97951.84;;;5.15;100.00
52319;BME280;38258;51.148;14.068;2023-02-23T05:28:31;97954.53;;;5.07;100.00
52319;BME280;38258;51.148;14.068;2023-02-23T05:30:59;97957.84;;;5.19;100.00
52319;BME280;38258;51.148;14.068;2023-02-23T05:33:28;97952.75;;;5.13;100.00
52319;BME280;38258;51.148;14.068;2023-02-23T05:35:55;97968.13;;;5.27;100.00
52319;BME280;38258;51.148;14.068;2023-02-23T05:38:21;97978.53;;;5.25;100.00
52319;BME280;38258;51.148;14.068;2023-02-23T05:40:50;97978.47;;;5.28;100.00
52319;BME280;38258;51.148;14.068;2023-02-23T05:43:17;97962.97;;;5.25;100.00
52319;BME280;38258;51.148;14.068;2023-02-23T05:45:44;97973.31;;;5.27;100.00
52319;BME280;38258;51.148;14.068;2023-02-23T05:48:11;97963.03;;;5.20;100.00
52319;BME280;38258;51.148;14.068;2023-02-23T05:50:38;97958.72;;;5.18;100.00
52319;BME280;38258;51.148;14.068;2023-02-23T05:53:05;97963.88;;;5.21;100.00
52319;BME280;38258;51.148;14.068;2023-02-23T05:55:32;97936.59;;;4.92;100.00
52319;BME280;38258;51.148;14.068;2023-02-23T05:58:00;97955.34;;;5.13;100.00
52319;BME280;38258;51.148;14.068;2023-02-23T06:00:27;97959.81;;;5.01;100.00
52319;BME280;38258;51.148;14.068;2023-02-23T06:02:53;97958.94;;;5.01;100.00
52319;BME280;38258;51.148;14.068;2023-02-23T06:05:20;97961.72;;;4.88;100.00
52319;BME280;38258;51.148;14.068;2023-02-23T06:07:47;97957.38;;;4.87;100.00
52319;BME280;38258;51.148;14.068;2023-02-23T06:10:14;97960.94;;;4.81;100.00
52319;BME280;38258;51.148;14.068;2023-02-23T06:12:45;97958.44;;;4.74;100.00
52319;BME280;38258;51.148;14.068;2023-02-23T06:15:13;97963.69;;;4.66;100.00
52319;BME280;38258;51.148;14.068;2023-02-23T06:17:50;97961.84;;;4.76;100.00
52319;BME280;38258;51.148;14.068;2023-02-23T06:20:21;97968.75;;;4.77;100.00
52319;BME280;38258;51.148;14.068;2023-02-23T06:22:48;97974.81;;;4.74;100.00
52319;BME280;38258;51.148;14.068;2023-02-23T06:25:15;97988.56;;;4.83;100.00
52319;BME280;38258;51.148;14.068;2023-02-23T06:27:42;97979.09;;;4.78;100.00
52319;BME280;38258;51.148;14.068;2023-02-23T06:30:10;97988.53;;;4.84;100.00
52319;BME280;38258;51.148;14.068;2023-02-23T06:32:39;97984.16;;;4.88;100.00
52319;BME280;38258;51.148;14.068;2023-02-23T06:35:09;97990.22;;;4.88;100.00
52319;BME280;38258;51.148;14.068;2023-02-23T06:37:37;97985.94;;;4.84;100.00
52319;BME280;38258;51.148;14.068;2023-02-23T06:40:05;97986.75;;;4.86;100.00
52319;BME280;38258;51.148;14.068;2023-02-23T06:42:32;97991.06;;;4.90;100.00
52319;BME280;38258;51.148;14.068;2023-02-23T06:45:00;97991.84;;;4.94;100.00
52319;BME280;38258;51.148;14.068;2023-02-23T06:47:27;97986.63;;;4.99;100.00
52319;BME280;38258;51.148;14.068;2023-02-23T06:49:55;97993.47;;;5.04;100.00
52319;BME280;38258;51.148;14.068;2023-02-23T06:52:22;97997.75;;;5.07;100.00
52319;BME280;38258;51.148;14.068;2023-02-23T06:54:50;97992.59;;;5.05;100.00
52319;BME280;38258;51.148;14.068;2023-02-23T06:57:17;97991.69;;;5.08;100.00
52319;BME280;38258;51.148;14.068;2023-02-23T06:59:43;97980.50;;;5.04;100.00
52319;BME280;38258;51.148;14.068;2023-02-23T07:02:11;97996.78;;;5.14;100.00
52319;BME280;38258;51.148;14.068;2023-02-23T07:04:38;98003.69;;;5.15;100.00
52319;BME280;38258;51.148;14.068;2023-02-23T07:07:06;98004.47;;;5.25;100.00
52319;BME280;38258;51.148;14.068;2023-02-23T07:09:33;98001.88;;;5.22;100.00
52319;BME280;38258;51.148;14.068;2023-02-23T07:12:00;98004.50;;;5.20;100.00
52319;BME280;38258;51.148;14.068;2023-02-23T07:14:27;98003.47;;;5.34;100.00
52319;BME280;38258;51.148;14.068;2023-02-23T07:16:53;98004.38;;;5.31;100.00
52319;BME280;38258;51.148;14.068;2023-02-23T07:19:20;98002.53;;;5.40;100.00
52319;BME280;38258;51.148;14.068;2023-02-23T07:21:47;98005.97;;;5.40;100.00
52319;BME280;38258;51.148;14.068;2023-02-23T07:24:15;98000.72;;;5.46;100.00
52319;BME280;38258;51.148;14.068;2023-02-23T07:26:42;98003.22;;;5.51;100.00
52319;BME280;38258;51.148;14.068;2023-02-23T07:29:11;98010.06;;;5.58;100.00
52319;BME280;38258;51.148;14.068;2023-02-23T07:31:39;98005.59;;;5.68;100.00
52319;BME280;38258;51.148;14.068;2023-02-23T07:34:05;97994.50;;;5.57;100.00
52319;BME280;38258;51.148;14.068;2023-02-23T07:36:32;98004.63;;;5.74;100.00
52319;BME280;38258;51.148;14.068;2023-02-23T07:38:59;98002.94;;;5.73;100.00
52319;BME280;38258;51.148;14.068;2023-02-23T07:41:27;98009.72;;;5.82;100.00
52319;BME280;38258;51.148;14.068;2023-02-23T07:43:54;98013.19;;;5.79;100.00
52319;BME280;38258;51.148;14.068;2023-02-23T07:46:21;98002.81;;;5.80;100.00
52319;BME280;38258;51.148;14.068;2023-02-23T07:48:48;98005.34;;;5.85;100.00
52319;BME280;38258;51.148;14.068;2023-02-23T07:51:15;98000.16;;;5.85;100.00
52319;BME280;38258;51.148;14.068;2023-02-23T07:53:43;97998.38;;;5.87;100.00
52319;BME280;38258;51.148;14.068;2023-02-23T07:56:11;98006.91;;;5.96;100.00
52319;BME280;38258;51.148;14.068;2023-02-23T07:58:41;98002.50;;;5.99;100.00
52319;BME280;38258;51.148;14.068;2023-02-23T08:01:11;98009.44;;;6.02;100.00
52319;BME280;38258;51.148;14.068;2023-02-23T08:03:38;98007.00;;;5.89;100.00
52319;BME280;38258;51.148;14.068;2023-02-23T08:06:05;98016.28;;;6.07;100.00
52319;BME280;38258;51.148;14.068;2023-02-23T08:08:32;98011.00;;;6.12;100.00
52319;BME280;38258;51.148;14.068;2023-02-23T08:11:00;98016.84;;;6.23;100.00
52319;BME280;38258;51.148;14.068;2023-02-23T08:13:27;98017.66;;;6.29;100.00
52319;BME280;38258;51.148;14.068;2023-02-23T08:15:55;98016.72;;;6.33;100.00
52319;BME280;38258;51.148;14.068;2023-02-23T08:18:22;98016.56;;;6.42;100.00
52319;BME280;38258;51.148;14.068;2023-02-23T08:20:50;98008.59;;;6.51;100.00
52319;BME280;38258;51.148;14.068;2023-02-23T08:23:22;98022.44;;;6.52;100.00
52319;BME280;38258;51.148;14.068;2023-02-23T08:25:49;98009.25;;;6.63;100.00
52319;BME280;38258;51.148;14.068;2023-02-23T08:28:16;98016.13;;;6.67;100.00
52319;BME280;38258;51.148;14.068;2023-02-23T08:30:43;98008.34;;;6.67;100.00
52319;BME280;38258;51.148;14.068;2023-02-23T08:33:11;98009.97;;;6.71;100.00
52319;BME280;38258;51.148;14.068;2023-02-23T08:35:38;98022.91;;;6.76;100.00
52319;BME280;38258;51.148;14.068;2023-02-23T08:38:05;98017.31;;;6.96;100.00
52319;BME280;38258;51.148;14.068;2023-02-23T08:40:32;98020.50;;;7.09;100.00
52319;BME280;38258;51.148;14.068;2023-02-23T08:42:58;98020.28;;;7.20;100.00
52319;BME280;38258;51.148;14.068;2023-02-23T08:45:25;98014.75;;;7.35;100.00
52319;BME280;38258;51.148;14.068;2023-02-23T08:47:54;98014.50;;;7.48;100.00
52319;BME280;38258;51.148;14.068;2023-02-23T08:50:22;98014.13;;;7.65;100.00
52319;BME280;38258;51.148;14.068;2023-02-23T08:52:49;98018.88;;;7.46;100.00
52319;BME280;38258;51.148;14.068;2023-02-23T08:55:16;98014.22;;;7.62;100.00
52319;BME280;38258;51.148;14.068;2023-02-23T08:57:45;98021.13;;;7.63;100.00
52319;BME280;38258;51.148;14.068;2023-02-23T09:00:13;98007.84;;;7.74;100.00
52319;BME280;38258;51.148;14.068;2023-02-23T09:02:41;98008.72;;;8.11;100.00
52319;BME280;38258;51.148;14.068;2023-02-23T09:05:09;98010.78;;;7.98;100.00
52319;BME280;38258;51.148;14.068;2023-02-23T09:07:40;98018.34;;;8.09;100.00
52319;BME280;38258;51.148;14.068;2023-02-23T09:10:11;98013.97;;;8.09;100.00
52319;BME280;38258;51.148;14.068;2023-02-23T09:12:38;98014.28;;;7.97;100.00
52319;BME280;38258;51.148;14.068;2023-02-23T09:15:06;98008.47;;;7.85;100.00
52319;BME280;38258;51.148;14.068;2023-02-23T09:17:33;98015.75;;;8.07;100.00
52319;BME280;38258;51.148;14.068;2023-02-23T09:20:00;98007.31;;;7.97;100.00
52319;BME280;38258;51.148;14.068;2023-02-23T09:22:26;98012.00;;;7.81;100.00
52319;BME280;38258;51.148;14.068;2023-02-23T09:24:55;98011.59;;;8.00;100.00
52319;BME280;38258;51.148;14.068;2023-02-23T09:27:22;98008.22;;;7.95;100.00
52319;BME280;38258;51.148;14.068;2023-02-23T09:29:49;98010.78;;;7.98;100.00
52319;BME280;38258;51.148;14.068;2023-02-23T09:32:15;98013.25;;;8.02;100.00
52319;BME280;38258;51.148;14.068;2023-02-23T09:34:42;98016.38;;;8.17;100.00
52319;BME280;38258;51.148;14.068;2023-02-23T09:37:09;98009.84;;;8.37;100.00
52319;BME280;38258;51.148;14.068;2023-02-23T09:39:36;98022.28;;;8.24;100.00
52319;BME280;38258;51.148;14.068;2023-02-23T09:42:12;98019.09;;;8.50;100.00
52319;BME280;38258;51.148;14.068;2023-02-23T09:44:56;98010.59;;;8.05;100.00
52319;BME280;38258;51.148;14.068;2023-02-23T09:47:31;98025.94;;;8.18;100.00
52319;BME280;38258;51.148;14.068;2023-02-23T09:50:14;98028.16;;;7.96;100.00
52319;BME280;38258;51.148;14.068;2023-02-23T09:52:44;98003.19;;;7.88;100.00
52319;BME280;38258;51.148;14.068;2023-02-23T09:55:14;98021.00;;;8.42;100.00
52319;BME280;38258;51.148;14.068;2023-02-23T09:57:46;98022.06;;;8.33;100.00
52319;BME280;38258;51.148;14.068;2023-02-23T10:00:17;98020.38;;;8.32;100.00
52319;BME280;38258;51.148;14.068;2023-02-23T10:02:53;98029.81;;;8.36;100.00
52319;BME280;38258;51.148;14.068;2023-02-23T10:05:22;98029.81;;;8.36;100.00
52319;BME280;38258;51.148;14.068;2023-02-23T10:07:52;98022.50;;;8.52;100.00
52319;BME280;38258;51.148;14.068;2023-02-23T10:10:26;98028.44;;;8.57;100.00
52319;BME280;38258;51.148;14.068;2023-02-23T10:13:02;98029.34;;;8.56;100.00
52319;BME280;38258;51.148;14.068;2023-02-23T13:51:06;97892.75;;;11.91;100.00
52319;BME280;38258;51.148;14.068;2023-02-23T13:53:40;97891.44;;;11.80;100.00
52319;BME280;38258;51.148;14.068;2023-02-23T13:56:09;97895.91;;;11.99;100.00
52319;BME280;38258;51.148;14.068;2023-02-23T13:58:44;97893.97;;;12.25;100.00
52319;BME280;38258;51.148;14.068;2023-02-23T14:01:15;97861.03;;;11.55;100.00
52319;BME280;38258;51.148;14.068;2023-02-23T14:03:46;97891.59;;;11.98;100.00
52319;BME280;38258;51.148;14.068;2023-02-23T14:06:20;97899.25;;;11.59;100.00
52319;BME280;38258;51.148;14.068;2023-02-23T14:08:54;97894.03;;;11.59;100.00
52319;BME280;38258;51.148;14.068;2023-02-23T14:11:40;97894.25;;;11.53;100.00
52319;BME280;38258;51.148;14.068;2023-02-23T14:14:12;97887.41;;;11.71;100.00
52319;BME280;38258;51.148;14.068;2023-02-23T14:16:42;97883.16;;;11.69;100.00
52319;BME280;38258;51.148;14.068;2023-02-23T14:19:13;97886.59;;;11.71;100.00
52319;BME280;38258;51.148;14.068;2023-02-23T14:21:46;97880.09;;;11.80;100.00
52319;BME280;38258;51.148;14.068;2023-02-23T14:24:21;97875.75;;;11.58;100.00
52319;BME280;38258;51.148;14.068;2023-02-23T14:30:19;97869.16;;;11.48;100.00
52319;BME280;38258;51.148;14.068;2023-02-23T14:32:48;97872.03;;;11.41;100.00
52319;BME280;38258;51.148;14.068;2023-02-23T14:35:37;97873.69;;;11.44;100.00
52319;BME280;38258;51.148;14.068;2023-02-23T14:38:16;97880.38;;;11.29;100.00
52319;BME280;38258;51.148;14.068;2023-02-23T14:40:50;97882.25;;;11.25;100.00
52319;BME280;38258;51.148;14.068;2023-02-23T14:43:32;97879.53;;;11.06;100.00
52319;BME280;38258;51.148;14.068;2023-02-23T14:46:09;97882.81;;;10.87;100.00
52319;BME280;38258;51.148;14.068;2023-02-23T14:48:38;97878.78;;;10.79;100.00
52319;BME280;38258;51.148;14.068;2023-02-23T14:51:13;97873.41;;;10.83;100.00
52319;BME280;38258;51.148;14.068;2023-02-23T14:53:47;97868.91;;;10.63;100.00
52319;BME280;38258;51.148;14.068;2023-02-23T14:56:19;97881.63;;;10.49;100.00
52319;BME280;38258;51.148;14.068;2023-02-23T14:58:49;97874.94;;;10.41;100.00
52319;BME280;38258;51.148;14.068;2023-02-23T15:01:31;97874.59;;;10.51;100.00
52319;BME280;38258;51.148;14.068;2023-02-23T15:04:08;97881.34;;;10.31;100.00
52319;BME280;38258;51.148;14.068;2023-02-23T15:06:37;97882.19;;;10.31;100.00
52319;BME280;38258;51.148;14.068;2023-02-23T15:09:12;97870.53;;;10.16;100.00
52319;BME280;38258;51.148;14.068;2023-02-23T15:11:41;97865.47;;;10.12;100.00
52319;BME280;38258;51.148;14.068;2023-02-23T15:14:12;97867.91;;;10.16;100.00
52319;BME280;38258;51.148;14.068;2023-02-23T15:16:40;97867.47;;;10.03;100.00
52319;BME280;38258;51.148;14.068;2023-02-23T15:19:28;97859.81;;;9.99;100.00
52319;BME280;38258;51.148;14.068;2023-02-23T15:21:58;97857.41;;;9.93;100.00
52319;BME280;38258;51.148;14.068;2023-02-23T15:24:31;97870.81;;;9.83;100.00
52319;BME280;38258;51.148;14.068;2023-02-23T15:26:59;97866.72;;;9.74;100.00
52319;BME280;38258;51.148;14.068;2023-02-23T15:29:30;97864.97;;;9.75;100.00
52319;BME280;38258;51.148;14.068;2023-02-23T15:32:10;97869.50;;;9.70;100.00
52319;BME280;38258;51.148;14.068;2023-02-23T15:34:39;97862.22;;;9.53;100.00
52319;BME280;38258;51.148;14.068;2023-02-23T15:37:12;97829.53;;;9.41;100.00
52319;BME280;38258;51.148;14.068;2023-02-23T15:39:46;97865.75;;;9.50;100.00
52319;BME280;38258;51.148;14.068;2023-02-23T15:42:22;97869.38;;;9.46;100.00
52319;BME280;38258;51.148;14.068;2023-02-23T15:44:55;97883.34;;;9.45;100.00
52319;BME280;38258;51.148;14.068;2023-02-23T15:47:30;97887.00;;;9.39;100.00
52319;BME280;38258;51.148;14.068;2023-02-23T15:50:06;97886.66;;;9.50;100.00
52319;BME280;38258;51.148;14.068;2023-02-23T15:52:38;97889.41;;;9.45;100.00
52319;BME280;38258;51.148;14.068;2023-02-23T15:55:14;97888.84;;;9.36;100.00
52319;BME280;38258;51.148;14.068;2023-02-23T15:57:47;97892.03;;;9.17;100.00
52319;BME280;38258;51.148;14.068;2023-02-23T16:00:20;97883.91;;;8.98;100.00
52319;BME280;38258;51.148;14.068;2023-02-23T16:02:55;97885.03;;;8.89;100.00
52319;BME280;38258;51.148;14.068;2023-02-23T16:05:23;97886.25;;;8.77;100.00
52319;BME280;38258;51.148;14.068;2023-02-23T16:08:01;97878.16;;;8.56;100.00
52319;BME280;38258;51.148;14.068;2023-02-23T16:10:40;97874.88;;;8.48;100.00
52319;BME280;38258;51.148;14.068;2023-02-23T16:13:11;97889.63;;;8.49;100.00
52319;BME280;38258;51.148;14.068;2023-02-23T16:15:39;97884.56;;;8.43;100.00
52319;BME280;38258;51.148;14.068;2023-02-23T16:18:12;97883.59;;;8.47;100.00
52319;BME280;38258;51.148;14.068;2023-02-23T16:20:45;97881.03;;;8.45;100.00
52319;BME280;38258;51.148;14.068;2023-02-23T16:23:23;97886.25;;;8.45;100.00
52319;BME280;38258;51.148;14.068;2023-02-23T16:26:25;97887.22;;;8.41;100.00
52319;BME280;38258;51.148;14.068;2023-02-23T16:29:21;97883.59;;;8.47;100.00
52319;BME280;38258;51.148;14.068;2023-02-23T16:32:07;97885.00;;;8.27;100.00
52319;BME280;38258;51.148;14.068;2023-02-23T16:34:47;97878.66;;;8.36;100.00
52319;BME280;38258;51.148;14.068;2023-02-23T16:37:17;97869.94;;;8.37;100.00
52319;BME280;38258;51.148;14.068;2023-02-23T16:39:47;97878.28;;;8.52;100.00
52319;BME280;38258;51.148;14.068;2023-02-23T16:42:23;97878.25;;;8.20;100.00
52319;BME280;38258;51.148;14.068;2023-02-23T16:44:52;97886.56;;;8.33;100.00
52319;BME280;38258;51.148;14.068;2023-02-23T16:47:32;97878.19;;;8.21;100.00
52319;BME280;38258;51.148;14.068;2023-02-23T16:50:04;97857.47;;;8.17;100.00
52319;BME280;38258;51.148;14.068;2023-02-23T16:52:37;97875.09;;;8.40;100.00
52319;BME280;38258;51.148;14.068;2023-02-23T16:55:04;97879.66;;;8.32;100.00
52319;BME280;38258;51.148;14.068;2023-02-23T16:57:37;97874.63;;;8.26;100.00